sensor_id;sensor_type;location;lat;lon;timestamp;temperature;humidity
316;DHT22;14128;48.686;9.738;2023-03-12T00:01:55;-3.30;1.00
316;DHT22;14128;48.686;9.738;2023-03-12T00:04:23;-3.30;1.00
316;DHT22;14128;48.686;9.738;2023-03-12T00:06:50;-3.40;99.90
316;DHT22;14128;48.686;9.738;2023-03-12T00:09:17;-3.40;99.90
316;DHT22;14128;48.686;9.738;2023-03-12T00:11:44;-3.50;99.90
316;DHT22;14128;48.686;9.738;2023-03-12T00:14:11;-3.50;99.90
316;DHT22;14128;48.686;9.738;2023-03-12T00:16:39;-3.50;99.90
316;DHT22;14128;48.686;9.738;2023-03-12T00:19:06;-3.50;99.90
316;DHT22;14128;48.686;9.738;2023-03-12T00:21:32;-3.60;99.90
316;DHT22;14128;48.686;9.738;2023-03-12T00:23:59;-3.60;99.90
316;DHT22;14128;48.686;9.738;2023-03-12T00:26:26;-3.70;1.00
316;DHT22;14128;48.686;9.738;2023-03-12T00:28:53;-3.60;99.90
316;DHT22;14128;48.686;9.738;2023-03-12T00:31:22;-3.60;99.90
316;DHT22;14128;48.686;9.738;2023-03-12T00:33:50;-3.60;99.90
316;DHT22;14128;48.686;9.738;2023-03-12T00:36:18;-3.50;99.90
316;DHT22;14128;48.686;9.738;2023-03-12T00:38:45;-3.60;99.90
316;DHT22;14128;48.686;9.738;2023-03-12T00:41:12;-3.60;1.00
316;DHT22;14128;48.686;9.738;2023-03-12T00:43:39;-3.60;99.90
316;DHT22;14128;48.686;9.738;2023-03-12T00:46:06;-3.60;99.90
316;DHT22;14128;48.686;9.738;2023-03-12T00:48:33;-3.60;99.90
316;DHT22;14128;48.686;9.738;2023-03-12T00:51:01;-3.60;99.90
316;DHT22;14128;48.686;9.738;2023-03-12T00:53:28;-3.60;55.80
316;DHT22;14128;48.686;9.738;2023-03-12T00:55:54;-3.60;99.90
316;DHT22;14128;48.686;9.738;2023-03-12T00:58:21;-3.60;99.90
316;DHT22;14128;48.686;9.738;2023-03-12T01:00:48;-3.60;99.90
316;DHT22;14128;48.686;9.738;2023-03-12T01:03:15;-3.60;99.90
316;DHT22;14128;48.686;9.738;2023-03-12T01:05:42;-3.70;99.90
316;DHT22;14128;48.686;9.738;2023-03-12T01:08:11;-3.70;99.90
316;DHT22;14128;48.686;9.738;2023-03-12T01:10:41;-3.70;99.90
316;DHT22;14128;48.686;9.738;2023-03-12T01:13:08;-3.70;96.90
316;DHT22;14128;48.686;9.738;2023-03-12T01:15:35;-3.70;99.90
316;DHT22;14128;48.686;9.738;2023-03-12T01:18:02;-3.70;99.90
316;DHT22;14128;48.686;9.738;2023-03-12T01:20:29;-3.70;99.90
316;DHT22;14128;48.686;9.738;2023-03-12T01:22:56;-3.70;99.90
316;DHT22;14128;48.686;9.738;2023-03-12T01:25:24;-3.70;99.90
316;DHT22;14128;48.686;9.738;2023-03-12T01:27:51;-3.70;99.90
316;DHT22;14128;48.686;9.738;2023-03-12T01:30:17;-3.60;99.90
316;DHT22;14128;48.686;9.738;2023-03-12T01:32:44;-3.60;1.40
316;DHT22;14128;48.686;9.738;2023-03-12T01:35:11;-3.60;1.00
316;DHT22;14128;48.686;9.738;2023-03-12T01:37:38;-3.60;1.00
316;DHT22;14128;48.686;9.738;2023-03-12T01:40:05;-3.40;1.00
316;DHT22;14128;48.686;9.738;2023-03-12T01:42:34;-3.40;1.00
316;DHT22;14128;48.686;9.738;2023-03-12T01:45:02;-3.30;99.90
316;DHT22;14128;48.686;9.738;2023-03-12T01:47:30;-3.30;99.90
316;DHT22;14128;48.686;9.738;2023-03-12T01:49:58;-3.30;1.00
316;DHT22;14128;48.686;9.738;2023-03-12T01:52:29;-3.20;29.10
316;DHT22;14128;48.686;9.738;2023-03-12T01:54:59;-3.10;1.00
316;DHT22;14128;48.686;9.738;2023-03-12T01:57:30;-3.00;1.00
316;DHT22;14128;48.686;9.738;2023-03-12T02:00:06;-2.80;99.90
316;DHT22;14128;48.686;9.738;2023-03-12T02:02:34;-2.60;99.90
316;DHT22;14128;48.686;9.738;2023-03-12T02:05:05;-2.50;99.90
316;DHT22;14128;48.686;9.738;2023-03-12T02:07:33;-2.30;99.90
316;DHT22;14128;48.686;9.738;2023-03-12T02:10:01;-2.20;99.90
316;DHT22;14128;48.686;9.738;2023-03-12T02:12:29;-2.10;99.90
316;DHT22;14128;48.686;9.738;2023-03-12T02:14:56;-2.00;99.90
316;DHT22;14128;48.686;9.738;2023-03-12T02:17:24;-2.00;99.90
316;DHT22;14128;48.686;9.738;2023-03-12T02:19:57;-1.90;63.60
316;DHT22;14128;48.686;9.738;2023-03-12T02:22:25;-1.80;99.90
316;DHT22;14128;48.686;9.738;2023-03-12T02:24:56;-1.70;1.00
316;DHT22;14128;48.686;9.738;2023-03-12T02:27:31;-1.70;99.90
316;DHT22;14128;48.686;9.738;2023-03-12T02:29:59;-1.60;99.90
316;DHT22;14128;48.686;9.738;2023-03-12T02:32:32;-1.60;99.90
316;DHT22;14128;48.686;9.738;2023-03-12T02:35:00;-1.50;99.90
316;DHT22;14128;48.686;9.738;2023-03-12T02:37:27;-1.50;99.90
316;DHT22;14128;48.686;9.738;2023-03-12T02:39:56;-1.50;99.90
316;DHT22;14128;48.686;9.738;2023-03-12T02:42:25;-1.40;97.90
316;DHT22;14128;48.686;9.738;2023-03-12T02:44:54;-1.40;95.20
316;DHT22;14128;48.686;9.738;2023-03-12T02:47:21;-1.40;94.60
316;DHT22;14128;48.686;9.738;2023-03-12T02:49:47;-1.40;96.40
316;DHT22;14128;48.686;9.738;2023-03-12T02:52:14;-1.20;1.00
316;DHT22;14128;48.686;9.738;2023-03-12T02:54:41;-1.20;77.60
316;DHT22;14128;48.686;9.738;2023-03-12T02:57:08;-1.10;47.30
316;DHT22;14128;48.686;9.738;2023-03-12T02:59:35;-1.00;99.90
316;DHT22;14128;48.686;9.738;2023-03-12T03:02:03;-1.00;66.70
316;DHT22;14128;48.686;9.738;2023-03-12T03:04:31;-1.00;67.50
316;DHT22;14128;48.686;9.738;2023-03-12T03:07:00;-1.00;62.80
316;DHT22;14128;48.686;9.738;2023-03-12T03:09:27;-0.90;59.80
316;DHT22;14128;48.686;9.738;2023-03-12T03:11:54;-0.90;57.50
316;DHT22;14128;48.686;9.738;2023-03-12T03:14:20;-0.80;1.00
316;DHT22;14128;48.686;9.738;2023-03-12T03:16:47;-0.80;1.00
316;DHT22;14128;48.686;9.738;2023-03-12T03:19:16;-0.80;99.90
316;DHT22;14128;48.686;9.738;2023-03-12T03:21:43;-0.80;1.00
316;DHT22;14128;48.686;9.738;2023-03-12T03:24:10;-0.70;99.90
316;DHT22;14128;48.686;9.738;2023-03-12T03:26:37;-0.70;1.00
316;DHT22;14128;48.686;9.738;2023-03-12T03:29:04;-0.70;99.90
316;DHT22;14128;48.686;9.738;2023-03-12T03:31:31;-0.70;45.20
316;DHT22;14128;48.686;9.738;2023-03-12T03:33:58;-0.60;99.90
316;DHT22;14128;48.686;9.738;2023-03-12T03:36:26;-0.60;41.30
316;DHT22;14128;48.686;9.738;2023-03-12T03:38:53;-0.50;41.90
316;DHT22;14128;48.686;9.738;2023-03-12T03:41:20;-0.50;39.30
316;DHT22;14128;48.686;9.738;2023-03-12T03:43:47;-0.60;38.00
316;DHT22;14128;48.686;9.738;2023-03-12T03:46:14;-0.60;1.00
316;DHT22;14128;48.686;9.738;2023-03-12T03:48:41;-0.60;86.80
316;DHT22;14128;48.686;9.738;2023-03-12T03:51:09;-0.60;1.00
316;DHT22;14128;48.686;9.738;2023-03-12T03:53:37;-0.50;40.30
316;DHT22;14128;48.686;9.738;2023-03-12T03:56:05;-0.50;38.70
316;DHT22;14128;48.686;9.738;2023-03-12T03:58:32;-0.50;37.90
316;DHT22;14128;48.686;9.738;2023-03-12T04:00:59;-0.50;37.40
316;DHT22;14128;48.686;9.738;2023-03-12T04:03:26;-0.40;35.40
316;DHT22;14128;48.686;9.738;2023-03-12T04:05:54;-0.30;99.90
316;DHT22;14128;48.686;9.738;2023-03-12T04:08:21;-0.30;1.00
316;DHT22;14128;48.686;9.738;2023-03-12T04:10:50;-0.30;1.00
316;DHT22;14128;48.686;9.738;2023-03-12T04:13:17;-0.30;1.00
316;DHT22;14128;48.686;9.738;2023-03-12T04:15:47;-0.30;1.00
316;DHT22;14128;48.686;9.738;2023-03-12T04:18:14;-0.30;1.00
316;DHT22;14128;48.686;9.738;2023-03-12T04:20:42;-0.30;99.90
316;DHT22;14128;48.686;9.738;2023-03-12T04:23:09;-0.20;1.00
316;DHT22;14128;48.686;9.738;2023-03-12T04:25:35;-0.10;99.90
316;DHT22;14128;48.686;9.738;2023-03-12T04:28:05;0.00;99.90
316;DHT22;14128;48.686;9.738;2023-03-12T04:30:32;0.10;18.30
316;DHT22;14128;48.686;9.738;2023-03-12T04:32:59;0.20;14.80
316;DHT22;14128;48.686;9.738;2023-03-12T04:35:26;0.30;99.90
316;DHT22;14128;48.686;9.738;2023-03-12T04:37:53;0.30;9.50
316;DHT22;14128;48.686;9.738;2023-03-12T04:40:20;0.40;9.90
316;DHT22;14128;48.686;9.738;2023-03-12T04:42:46;0.50;6.70
316;DHT22;14128;48.686;9.738;2023-03-12T04:45:15;0.50;6.00
316;DHT22;14128;48.686;9.738;2023-03-12T04:47:42;0.50;99.90
316;DHT22;14128;48.686;9.738;2023-03-12T04:50:09;0.50;4.70
316;DHT22;14128;48.686;9.738;2023-03-12T04:52:36;0.60;1.50
316;DHT22;14128;48.686;9.738;2023-03-12T04:55:04;0.60;1.20
316;DHT22;14128;48.686;9.738;2023-03-12T04:57:31;0.60;32.20
316;DHT22;14128;48.686;9.738;2023-03-12T04:59:58;0.60;99.90
316;DHT22;14128;48.686;9.738;2023-03-12T05:02:26;0.60;99.90
316;DHT22;14128;48.686;9.738;2023-03-12T05:04:55;0.70;99.90
316;DHT22;14128;48.686;9.738;2023-03-12T05:07:22;0.70;99.90
316;DHT22;14128;48.686;9.738;2023-03-12T05:09:48;0.80;99.90
316;DHT22;14128;48.686;9.738;2023-03-12T05:12:15;0.80;99.90
316;DHT22;14128;48.686;9.738;2023-03-12T05:14:42;0.90;99.90
316;DHT22;14128;48.686;9.738;2023-03-12T05:17:09;0.80;99.90
316;DHT22;14128;48.686;9.738;2023-03-12T05:19:37;0.90;99.90
316;DHT22;14128;48.686;9.738;2023-03-12T05:22:04;1.00;99.90
316;DHT22;14128;48.686;9.738;2023-03-12T05:24:31;1.00;99.90
316;DHT22;14128;48.686;9.738;2023-03-12T05:26:57;1.00;99.90
316;DHT22;14128;48.686;9.738;2023-03-12T05:29:24;1.10;99.90
316;DHT22;14128;48.686;9.738;2023-03-12T05:31:51;1.10;99.90
316;DHT22;14128;48.686;9.738;2023-03-12T05:34:18;1.10;99.90
316;DHT22;14128;48.686;9.738;2023-03-12T05:36:46;1.10;99.90
316;DHT22;14128;48.686;9.738;2023-03-12T05:39:13;1.20;99.90
316;DHT22;14128;48.686;9.738;2023-03-12T05:41:40;1.20;99.90
316;DHT22;14128;48.686;9.738;2023-03-12T05:44:10;1.20;1.40
316;DHT22;14128;48.686;9.738;2023-03-12T05:46:36;1.30;99.90
316;DHT22;14128;48.686;9.738;2023-03-12T05:49:03;1.30;1.00
316;DHT22;14128;48.686;9.738;2023-03-12T05:51:30;1.30;99.90
316;DHT22;14128;48.686;9.738;2023-03-12T05:53:58;1.40;1.00
316;DHT22;14128;48.686;9.738;2023-03-12T05:56:25;1.40;99.90
316;DHT22;14128;48.686;9.738;2023-03-12T05:58:52;1.40;99.90
316;DHT22;14128;48.686;9.738;2023-03-12T06:01:21;1.40;99.90
316;DHT22;14128;48.686;9.738;2023-03-12T06:03:48;1.50;99.90
316;DHT22;14128;48.686;9.738;2023-03-12T06:06:15;1.50;99.90
316;DHT22;14128;48.686;9.738;2023-03-12T06:08:42;1.60;99.90
316;DHT22;14128;48.686;9.738;2023-03-12T06:11:11;1.60;99.90
316;DHT22;14128;48.686;9.738;2023-03-12T06:13:38;1.70;99.90
316;DHT22;14128;48.686;9.738;2023-03-12T06:16:06;1.70;99.90
316;DHT22;14128;48.686;9.738;2023-03-12T06:18:34;1.80;99.90
316;DHT22;14128;48.686;9.738;2023-03-12T06:21:10;1.80;99.90
316;DHT22;14128;48.686;9.738;2023-03-12T06:23:37;1.80;99.90
316;DHT22;14128;48.686;9.738;2023-03-12T06:26:04;1.90;99.90
316;DHT22;14128;48.686;9.738;2023-03-12T06:28:32;1.90;99.90
316;DHT22;14128;48.686;9.738;2023-03-12T06:31:00;2.00;1.40
316;DHT22;14128;48.686;9.738;2023-03-12T06:33:27;2.10;1.40
316;DHT22;14128;48.686;9.738;2023-03-12T06:35:54;2.10;31.20
316;DHT22;14128;48.686;9.738;2023-03-12T06:38:21;2.20;99.90
316;DHT22;14128;48.686;9.738;2023-03-12T06:40:55;2.30;99.90
316;DHT22;14128;48.686;9.738;2023-03-12T06:43:23;2.40;99.90
316;DHT22;14128;48.686;9.738;2023-03-12T06:45:52;2.50;99.90
316;DHT22;14128;48.686;9.738;2023-03-12T06:48:20;2.60;1.40
316;DHT22;14128;48.686;9.738;2023-03-12T06:50:47;2.60;99.90
316;DHT22;14128;48.686;9.738;2023-03-12T06:53:13;2.70;99.90
316;DHT22;14128;48.686;9.738;2023-03-12T06:55:40;2.70;99.90
316;DHT22;14128;48.686;9.738;2023-03-12T06:58:08;2.70;99.90
316;DHT22;14128;48.686;9.738;2023-03-12T07:00:35;2.80;99.90
316;DHT22;14128;48.686;9.738;2023-03-12T07:03:03;2.80;99.90
316;DHT22;14128;48.686;9.738;2023-03-12T07:05:30;2.70;99.90
316;DHT22;14128;48.686;9.738;2023-03-12T07:07:57;2.70;99.90
316;DHT22;14128;48.686;9.738;2023-03-12T07:10:24;2.70;99.90
316;DHT22;14128;48.686;9.738;2023-03-12T07:12:52;2.70;1.40
316;DHT22;14128;48.686;9.738;2023-03-12T07:15:19;2.70;99.90
316;DHT22;14128;48.686;9.738;2023-03-12T07:17:46;2.70;99.90
316;DHT22;14128;48.686;9.738;2023-03-12T07:20:14;2.80;99.90
316;DHT22;14128;48.686;9.738;2023-03-12T07:22:41;2.80;99.90
316;DHT22;14128;48.686;9.738;2023-03-12T07:25:09;2.90;99.90
316;DHT22;14128;48.686;9.738;2023-03-12T07:27:36;3.10;1.40
316;DHT22;14128;48.686;9.738;2023-03-12T07:30:03;3.20;99.90
316;DHT22;14128;48.686;9.738;2023-03-12T07:32:30;3.40;99.90
316;DHT22;14128;48.686;9.738;2023-03-12T07:34:57;3.80;99.90
316;DHT22;14128;48.686;9.738;2023-03-12T07:37:26;4.10;99.90
316;DHT22;14128;48.686;9.738;2023-03-12T07:39:52;4.20;99.90
316;DHT22;14128;48.686;9.738;2023-03-12T07:42:21;4.30;99.90
316;DHT22;14128;48.686;9.738;2023-03-12T07:44:48;4.30;99.90
316;DHT22;14128;48.686;9.738;2023-03-12T07:47:14;4.30;1.40
316;DHT22;14128;48.686;9.738;2023-03-12T07:49:41;4.50;99.90
316;DHT22;14128;48.686;9.738;2023-03-12T07:52:08;4.70;1.40
316;DHT22;14128;48.686;9.738;2023-03-12T07:54:37;4.90;99.90
316;DHT22;14128;48.686;9.738;2023-03-12T07:57:04;5.00;99.90
316;DHT22;14128;48.686;9.738;2023-03-12T07:59:31;5.00;99.90
316;DHT22;14128;48.686;9.738;2023-03-12T08:01:58;5.00;99.90
316;DHT22;14128;48.686;9.738;2023-03-12T08:04:25;5.00;1.40
316;DHT22;14128;48.686;9.738;2023-03-12T08:06:52;5.00;99.90
316;DHT22;14128;48.686;9.738;2023-03-12T08:09:18;5.00;1.40
316;DHT22;14128;48.686;9.738;2023-03-12T08:11:47;5.20;1.40
316;DHT22;14128;48.686;9.738;2023-03-12T08:14:13;5.30;99.90
316;DHT22;14128;48.686;9.738;2023-03-12T08:16:40;5.40;1.40
316;DHT22;14128;48.686;9.738;2023-03-12T08:19:07;5.50;1.40
316;DHT22;14128;48.686;9.738;2023-03-12T08:21:34;5.60;1.40
316;DHT22;14128;48.686;9.738;2023-03-12T08:24:01;5.80;1.40
316;DHT22;14128;48.686;9.738;2023-03-12T08:26:28;5.90;99.90
316;DHT22;14128;48.686;9.738;2023-03-12T08:28:56;6.10;1.40
316;DHT22;14128;48.686;9.738;2023-03-12T08:31:24;6.30;1.40
316;DHT22;14128;48.686;9.738;2023-03-12T08:33:51;6.40;1.40
316;DHT22;14128;48.686;9.738;2023-03-12T08:36:18;6.60;99.90
316;DHT22;14128;48.686;9.738;2023-03-12T08:38:45;6.80;1.40
316;DHT22;14128;48.686;9.738;2023-03-12T08:41:12;7.00;1.40
316;DHT22;14128;48.686;9.738;2023-03-12T08:43:39;6.80;1.40
316;DHT22;14128;48.686;9.738;2023-03-12T08:46:07;6.80;1.40
316;DHT22;14128;48.686;9.738;2023-03-12T08:48:34;6.80;1.40
316;DHT22;14128;48.686;9.738;2023-03-12T08:51:01;6.70;1.40
316;DHT22;14128;48.686;9.738;2023-03-12T08:53:31;6.90;1.40
316;DHT22;14128;48.686;9.738;2023-03-12T08:55:58;7.20;1.40
316;DHT22;14128;48.686;9.738;2023-03-12T08:58:25;7.50;1.40
316;DHT22;14128;48.686;9.738;2023-03-12T09:00:52;7.70;99.90
316;DHT22;14128;48.686;9.738;2023-03-12T09:03:21;7.90;1.40
316;DHT22;14128;48.686;9.738;2023-03-12T09:05:48;7.80;99.90
316;DHT22;14128;48.686;9.738;2023-03-12T09:08:15;7.90;99.90
316;DHT22;14128;48.686;9.738;2023-03-12T09:10:47;7.70;99.90
316;DHT22;14128;48.686;9.738;2023-03-12T09:13:14;7.50;1.40
316;DHT22;14128;48.686;9.738;2023-03-12T09:15:41;7.70;99.90
316;DHT22;14128;48.686;9.738;2023-03-12T09:18:08;8.00;1.40
316;DHT22;14128;48.686;9.738;2023-03-12T09:20:36;8.20;99.90
316;DHT22;14128;48.686;9.738;2023-03-12T09:23:03;8.20;1.40
316;DHT22;14128;48.686;9.738;2023-03-12T09:25:30;8.40;1.40
316;DHT22;14128;48.686;9.738;2023-03-12T09:27:57;8.50;1.40
316;DHT22;14128;48.686;9.738;2023-03-12T09:30:24;8.60;1.40
316;DHT22;14128;48.686;9.738;2023-03-12T09:32:52;8.60;1.40
316;DHT22;14128;48.686;9.738;2023-03-12T09:35:19;8.80;1.40
316;DHT22;14128;48.686;9.738;2023-03-12T09:37:48;8.90;1.40
316;DHT22;14128;48.686;9.738;2023-03-12T09:40:17;9.10;1.40
316;DHT22;14128;48.686;9.738;2023-03-12T09:42:47;9.00;1.40
316;DHT22;14128;48.686;9.738;2023-03-12T09:45:17;8.90;1.40
316;DHT22;14128;48.686;9.738;2023-03-12T09:47:47;9.20;1.40
316;DHT22;14128;48.686;9.738;2023-03-12T09:50:20;9.10;1.40
316;DHT22;14128;48.686;9.738;2023-03-12T09:52:55;9.20;1.40
316;DHT22;14128;48.686;9.738;2023-03-12T09:55:24;9.00;1.40
316;DHT22;14128;48.686;9.738;2023-03-12T09:57:51;9.00;1.40
316;DHT22;14128;48.686;9.738;2023-03-12T10:00:21;9.00;1.40
316;DHT22;14128;48.686;9.738;2023-03-12T10:03:15;9.00;1.40
316;DHT22;14128;48.686;9.738;2023-03-12T10:05:47;9.10;1.40
316;DHT22;14128;48.686;9.738;2023-03-12T10:08:26;9.20;1.40
316;DHT22;14128;48.686;9.738;2023-03-12T10:10:59;9.50;1.40
316;DHT22;14128;48.686;9.738;2023-03-12T10:13:41;9.60;1.40
316;DHT22;14128;48.686;9.738;2023-03-12T10:16:19;9.90;1.40
316;DHT22;14128;48.686;9.738;2023-03-12T10:19:08;10.00;1.40
316;DHT22;14128;48.686;9.738;2023-03-12T10:21:43;10.10;1.40
316;DHT22;14128;48.686;9.738;2023-03-12T10:24:23;10.20;1.40
316;DHT22;14128;48.686;9.738;2023-03-12T10:26:57;10.40;1.40
316;DHT22;14128;48.686;9.738;2023-03-12T10:29:26;10.60;1.40
316;DHT22;14128;48.686;9.738;2023-03-12T10:31:57;10.90;1.40
316;DHT22;14128;48.686;9.738;2023-03-12T10:34:29;11.00;1.40
316;DHT22;14128;48.686;9.738;2023-03-12T10:36:58;11.20;1.40
316;DHT22;14128;48.686;9.738;2023-03-12T10:39:27;11.60;1.40
316;DHT22;14128;48.686;9.738;2023-03-12T10:41:54;12.10;1.40
316;DHT22;14128;48.686;9.738;2023-03-12T10:44:23;11.70;1.40
316;DHT22;14128;48.686;9.738;2023-03-12T10:47:29;11.80;1.40
316;DHT22;14128;48.686;9.738;2023-03-12T10:50:12;12.00;1.40
316;DHT22;14128;48.686;9.738;2023-03-12T10:52:39;11.80;1.40
316;DHT22;14128;48.686;9.738;2023-03-12T10:55:15;11.50;1.40
316;DHT22;14128;48.686;9.738;2023-03-12T10:57:45;11.10;1.40
316;DHT22;14128;48.686;9.738;2023-03-12T11:00:17;11.00;1.40
316;DHT22;14128;48.686;9.738;2023-03-12T11:02:46;10.90;1.40
316;DHT22;14128;48.686;9.738;2023-03-12T11:05:22;10.90;1.40
316;DHT22;14128;48.686;9.738;2023-03-12T11:07:49;10.80;1.40
316;DHT22;14128;48.686;9.738;2023-03-12T11:10:21;10.50;1.40
316;DHT22;14128;48.686;9.738;2023-03-12T11:13:19;10.50;1.40
316;DHT22;14128;48.686;9.738;2023-03-12T11:15:47;10.20;99.90
316;DHT22;14128;48.686;9.738;2023-03-12T11:18:27;10.20;1.40
316;DHT22;14128;48.686;9.738;2023-03-12T11:20:56;10.40;1.40
316;DHT22;14128;48.686;9.738;2023-03-12T11:23:26;10.60;1.40
316;DHT22;14128;48.686;9.738;2023-03-12T11:25:57;10.80;1.40
316;DHT22;14128;48.686;9.738;2023-03-12T11:28:36;10.70;1.40
316;DHT22;14128;48.686;9.738;2023-03-12T11:31:07;10.80;1.40
316;DHT22;14128;48.686;9.738;2023-03-12T11:33:34;11.00;1.40
316;DHT22;14128;48.686;9.738;2023-03-12T11:36:10;11.20;1.40
316;DHT22;14128;48.686;9.738;2023-03-12T11:38:42;11.20;1.40
316;DHT22;14128;48.686;9.738;2023-03-12T11:41:26;11.40;99.90
316;DHT22;14128;48.686;9.738;2023-03-12T11:44:08;11.40;1.40
316;DHT22;14128;48.686;9.738;2023-03-12T11:46:47;11.10;1.40
316;DHT22;14128;48.686;9.738;2023-03-12T11:49:26;11.10;1.40
316;DHT22;14128;48.686;9.738;2023-03-12T11:51:59;11.10;1.40
316;DHT22;14128;48.686;9.738;2023-03-12T11:57:47;11.80;1.00
316;DHT22;14128;48.686;9.738;2023-03-12T12:00:17;11.90;1.00
316;DHT22;14128;48.686;9.738;2023-03-12T12:05:44;11.80;99.90
316;DHT22;14128;48.686;9.738;2023-03-12T12:08:29;12.10;99.90
316;DHT22;14128;48.686;9.738;2023-03-12T12:11:05;12.10;99.90
316;DHT22;14128;48.686;9.738;2023-03-12T12:13:45;12.20;99.90
316;DHT22;14128;48.686;9.738;2023-03-12T12:16:22;12.10;99.90
316;DHT22;14128;48.686;9.738;2023-03-12T12:19:01;12.20;99.90
316;DHT22;14128;48.686;9.738;2023-03-12T12:21:41;12.30;99.90
316;DHT22;14128;48.686;9.738;2023-03-12T12:24:19;12.30;99.90
316;DHT22;14128;48.686;9.738;2023-03-12T12:26:53;12.20;99.90
316;DHT22;14128;48.686;9.738;2023-03-12T12:29:25;12.50;99.90
316;DHT22;14128;48.686;9.738;2023-03-12T12:31:57;12.70;99.90
316;DHT22;14128;48.686;9.738;2023-03-12T12:34:49;12.70;99.90
316;DHT22;14128;48.686;9.738;2023-03-12T12:37:24;12.80;99.90
316;DHT22;14128;48.686;9.738;2023-03-12T12:40:02;13.10;1.40
316;DHT22;14128;48.686;9.738;2023-03-12T12:42:38;13.00;99.90
316;DHT22;14128;48.686;9.738;2023-03-12T12:45:13;12.80;1.00
316;DHT22;14128;48.686;9.738;2023-03-12T12:47:44;12.80;1.00
316;DHT22;14128;48.686;9.738;2023-03-12T12:50:16;12.90;99.90
316;DHT22;14128;48.686;9.738;2023-03-12T12:52:45;13.20;99.90
316;DHT22;14128;48.686;9.738;2023-03-12T12:55:17;13.50;99.90
316;DHT22;14128;48.686;9.738;2023-03-12T12:57:50;13.40;99.90
316;DHT22;14128;48.686;9.738;2023-03-12T13:00:39;13.50;1.40
316;DHT22;14128;48.686;9.738;2023-03-12T13:03:12;13.20;1.40
316;DHT22;14128;48.686;9.738;2023-03-12T13:05:45;13.30;1.40
316;DHT22;14128;48.686;9.738;2023-03-12T13:09:00;13.50;1.40
316;DHT22;14128;48.686;9.738;2023-03-12T13:11:29;13.80;1.40
316;DHT22;14128;48.686;9.738;2023-03-12T13:14:18;13.90;1.40
316;DHT22;14128;48.686;9.738;2023-03-12T13:16:47;13.90;1.40
316;DHT22;14128;48.686;9.738;2023-03-12T13:19:24;13.90;29.80
316;DHT22;14128;48.686;9.738;2023-03-12T13:22:03;14.10;1.40
316;DHT22;14128;48.686;9.738;2023-03-12T13:24:35;14.20;1.40
316;DHT22;14128;48.686;9.738;2023-03-12T13:27:16;14.50;1.40
316;DHT22;14128;48.686;9.738;2023-03-12T13:29:44;14.40;1.40
316;DHT22;14128;48.686;9.738;2023-03-12T13:32:37;14.20;1.40
316;DHT22;14128;48.686;9.738;2023-03-12T13:35:18;13.60;1.40
316;DHT22;14128;48.686;9.738;2023-03-12T13:38:03;13.50;1.40
316;DHT22;14128;48.686;9.738;2023-03-12T13:40:53;13.50;1.40
316;DHT22;14128;48.686;9.738;2023-03-12T13:43:49;13.60;1.40
316;DHT22;14128;48.686;9.738;2023-03-12T13:46:38;13.20;1.40
316;DHT22;14128;48.686;9.738;2023-03-12T13:49:19;12.60;1.40
316;DHT22;14128;48.686;9.738;2023-03-12T13:52:00;12.40;1.40
316;DHT22;14128;48.686;9.738;2023-03-12T13:54:32;12.30;1.40
316;DHT22;14128;48.686;9.738;2023-03-12T13:57:02;12.20;1.40
316;DHT22;14128;48.686;9.738;2023-03-12T13:59:31;12.30;1.40
316;DHT22;14128;48.686;9.738;2023-03-12T14:02:04;12.60;1.40
316;DHT22;14128;48.686;9.738;2023-03-12T14:04:38;12.80;1.40
316;DHT22;14128;48.686;9.738;2023-03-12T14:07:18;12.80;1.40
316;DHT22;14128;48.686;9.738;2023-03-12T14:09:58;12.40;1.40
316;DHT22;14128;48.686;9.738;2023-03-12T14:12:31;12.40;1.40
316;DHT22;14128;48.686;9.738;2023-03-12T14:15:16;12.10;1.40
316;DHT22;14128;48.686;9.738;2023-03-12T14:17:53;12.00;1.40
316;DHT22;14128;48.686;9.738;2023-03-12T14:20:22;11.80;1.40
316;DHT22;14128;48.686;9.738;2023-03-12T14:22:51;11.50;99.90
316;DHT22;14128;48.686;9.738;2023-03-12T14:25:28;11.30;1.00
316;DHT22;14128;48.686;9.738;2023-03-12T14:27:57;11.10;99.90
316;DHT22;14128;48.686;9.738;2023-03-12T14:30:30;11.10;99.90
316;DHT22;14128;48.686;9.738;2023-03-12T14:32:58;11.20;1.40
316;DHT22;14128;48.686;9.738;2023-03-12T14:35:33;11.30;1.40
316;DHT22;14128;48.686;9.738;2023-03-12T14:38:04;11.30;1.40
316;DHT22;14128;48.686;9.738;2023-03-12T14:40:37;11.30;1.40
316;DHT22;14128;48.686;9.738;2023-03-12T14:43:22;11.40;1.40
316;DHT22;14128;48.686;9.738;2023-03-12T14:45:50;11.50;51.10
316;DHT22;14128;48.686;9.738;2023-03-12T14:48:20;11.70;1.00
316;DHT22;14128;48.686;9.738;2023-03-12T14:50:49;12.20;1.00
316;DHT22;14128;48.686;9.738;2023-03-12T14:53:20;12.40;99.90
316;DHT22;14128;48.686;9.738;2023-03-12T14:56:04;12.70;1.00
316;DHT22;14128;48.686;9.738;2023-03-12T14:58:32;13.10;1.00
316;DHT22;14128;48.686;9.738;2023-03-12T15:01:01;13.20;1.00
316;DHT22;14128;48.686;9.738;2023-03-12T15:03:30;13.30;1.00
316;DHT22;14128;48.686;9.738;2023-03-12T15:06:00;13.50;1.00
316;DHT22;14128;48.686;9.738;2023-03-12T15:08:26;13.30;1.00
316;DHT22;14128;48.686;9.738;2023-03-12T15:10:55;13.20;1.00
316;DHT22;14128;48.686;9.738;2023-03-12T15:13:23;13.10;1.00
316;DHT22;14128;48.686;9.738;2023-03-12T15:15:52;13.30;1.00
316;DHT22;14128;48.686;9.738;2023-03-12T15:18:21;13.30;1.00
316;DHT22;14128;48.686;9.738;2023-03-12T15:20:51;13.50;1.00
316;DHT22;14128;48.686;9.738;2023-03-12T15:23:21;13.20;1.00
316;DHT22;14128;48.686;9.738;2023-03-12T15:26:08;13.30;1.00
316;DHT22;14128;48.686;9.738;2023-03-12T15:28:36;13.10;1.00
316;DHT22;14128;48.686;9.738;2023-03-12T15:31:12;13.00;1.00
316;DHT22;14128;48.686;9.738;2023-03-12T15:33:40;12.80;1.00
316;DHT22;14128;48.686;9.738;2023-03-12T15:36:23;12.60;1.00
316;DHT22;14128;48.686;9.738;2023-03-12T15:38:54;12.20;1.00
316;DHT22;14128;48.686;9.738;2023-03-12T15:41:25;12.30;99.90
316;DHT22;14128;48.686;9.738;2023-03-12T15:43:54;12.30;99.90
316;DHT22;14128;48.686;9.738;2023-03-12T15:46:23;12.20;99.90
316;DHT22;14128;48.686;9.738;2023-03-12T15:48:51;12.10;99.90
316;DHT22;14128;48.686;9.738;2023-03-12T15:51:29;12.10;99.90
316;DHT22;14128;48.686;9.738;2023-03-12T15:54:18;12.10;99.90
316;DHT22;14128;48.686;9.738;2023-03-12T15:56:46;12.00;99.90
316;DHT22;14128;48.686;9.738;2023-03-12T15:59:23;11.90;1.00
316;DHT22;14128;48.686;9.738;2023-03-12T16:01:51;11.90;99.90
316;DHT22;14128;48.686;9.738;2023-03-12T16:04:18;11.80;99.90
316;DHT22;14128;48.686;9.738;2023-03-12T16:06:46;11.80;99.90
316;DHT22;14128;48.686;9.738;2023-03-12T16:09:16;11.70;1.00
316;DHT22;14128;48.686;9.738;2023-03-12T16:11:44;11.60;99.90
316;DHT22;14128;48.686;9.738;2023-03-12T16:14:16;11.60;99.90
316;DHT22;14128;48.686;9.738;2023-03-12T16:16:43;11.50;99.90
316;DHT22;14128;48.686;9.738;2023-03-12T16:19:11;11.40;99.90
316;DHT22;14128;48.686;9.738;2023-03-12T16:21:39;11.40;99.90
316;DHT22;14128;48.686;9.738;2023-03-12T16:24:07;11.40;3.60
316;DHT22;14128;48.686;9.738;2023-03-12T16:26:37;11.30;99.90
316;DHT22;14128;48.686;9.738;2023-03-12T16:29:09;11.30;11.30
316;DHT22;14128;48.686;9.738;2023-03-12T16:31:39;11.30;1.00
316;DHT22;14128;48.686;9.738;2023-03-12T16:34:08;11.30;99.90
316;DHT22;14128;48.686;9.738;2023-03-12T16:36:36;11.30;99.90
316;DHT22;14128;48.686;9.738;2023-03-12T16:39:03;11.10;99.90
316;DHT22;14128;48.686;9.738;2023-03-12T16:41:30;11.00;99.90